Time;durP1;ratioP1;P1;durP2;ratioP2;P2;SDS_P1;SDS_P2;PMS_P1;PMS_P2;Temp;Humidity;BMP_temperature;BMP_pressure;BME280_temperature;BME280_humidity;BME280_pressure;Samples;Min_cycle;Max_cycle;Signal;HPM_P1;HPM_P2
2023/08/02 00:01:51;;;;;;;8.93;3.35;;;15.80;95.30;;;;;;5055082;28;20047;-50
2023/08/02 00:04:18;;;;;;;3.78;2.78;;;15.80;95.40;;;;;;5073463;28;20044;-50
2023/08/02 00:06:47;;;;;;;8.50;2.85;;;15.80;95.40;;;;;;5073464;28;20029;-49
2023/08/02 00:09:13;;;;;;;7.17;3.10;;;15.80;95.40;;;;;;5073550;28;20024;-48
2023/08/02 00:11:39;;;;;;;7.15;4.20;;;15.80;95.40;;;;;;5054685;28;20378;-49
2023/08/02 00:14:06;;;;;;;6.80;3.50;;;15.80;95.40;;;;;;5073392;28;20128;-48
2023/08/02 00:16:35;;;;;;;4.53;3.08;;;15.80;95.40;;;;;;5073438;28;20029;-49
2023/08/02 00:19:02;;;;;;;7.05;3.92;;;15.80;95.40;;;;;;5073345;28;20032;-49
2023/08/02 00:21:29;;;;;;;7.30;3.78;;;15.80;95.40;;;;;;5072881;28;20350;-48
2023/08/02 00:23:58;;;;;;;6.68;3.53;;;15.80;95.30;;;;;;5055252;28;20108;-51
2023/08/02 00:26:26;;;;;;;6.20;3.60;;;15.70;95.20;;;;;;5072503;28;20017;-48
2023/08/02 00:28:53;;;;;;;5.80;3.15;;;15.70;95.30;;;;;;5073228;28;20445;-48
2023/08/02 00:31:25;;;;;;;9.35;3.58;;;15.70;95.30;;;;;;5073312;28;20055;-50
2023/08/02 00:33:55;;;;;;;6.05;2.95;;;15.70;95.30;;;;;;5072927;28;20436;-48
2023/08/02 00:36:22;;;;;;;8.32;2.45;;;15.70;95.30;;;;;;5072531;28;20021;-48
2023/08/02 00:38:49;;;;;;;5.60;2.80;;;15.70;95.30;;;;;;5073072;28;20640;-48
2023/08/02 00:41:16;;;;;;;4.68;2.75;;;15.80;95.30;;;;;;5073118;28;20422;-48
2023/08/02 00:43:45;;;;;;;4.13;2.53;;;15.80;95.30;;;;;;5073017;28;20438;-49
2023/08/02 00:46:17;;;;;;;5.03;2.45;;;15.80;95.30;;;;;;5072265;28;20032;-48
2023/08/02 00:48:46;;;;;;;8.38;2.58;;;15.80;95.30;;;;;;5072102;28;20044;-49
2023/08/02 00:51:16;;;;;;;9.25;2.95;;;15.80;95.30;;;;;;5072944;28;20322;-48
2023/08/02 00:53:46;;;;;;;5.38;2.20;;;15.80;95.30;;;;;;5072993;28;20020;-49
2023/08/02 00:56:18;;;;;;;4.82;2.00;;;15.80;95.30;;;;;;5072888;28;20038;-48
2023/08/02 00:58:44;;;;;;;6.93;2.15;;;15.80;95.30;;;;;;5072171;28;20074;-49
2023/08/02 01:01:11;;;;;;;5.50;2.42;;;15.80;95.30;;;;;;5075923;28;20024;-49
2023/08/02 01:03:39;;;;;;;4.70;2.30;;;15.80;95.30;;;;;;5076884;28;20029;-50
2023/08/02 01:06:27;;;;;;;3.50;2.17;;;15.80;95.30;;;;;;5075952;28;20025;-49
2023/08/02 01:09:26;;;;;;;8.30;2.50;;;15.80;95.30;;;;;;5059109;28;20032;-48
2023/08/02 01:12:01;;;;;;;4.60;2.53;;;15.80;95.30;;;;;;5041295;28;20474;-49
2023/08/02 01:14:30;;;;;;;5.75;2.88;;;15.70;95.30;;;;;;5056632;28;20124;-49
2023/08/02 01:16:58;;;;;;;4.95;3.38;;;15.70;95.30;;;;;;5056558;28;20162;-48
2023/08/02 01:19:25;;;;;;;7.40;3.22;;;15.70;95.30;;;;;;5060986;28;20541;-48
2023/08/02 01:21:50;;;;;;;8.23;3.72;;;15.70;95.30;;;;;;5076432;28;20028;-51
2023/08/02 01:24:18;;;;;;;6.18;3.35;;;15.70;95.30;;;;;;5057739;28;20036;-48
2023/08/02 01:26:47;;;;;;;5.57;2.63;;;15.80;95.30;;;;;;5076275;28;20028;-48
2023/08/02 01:29:19;;;;;;;5.18;3.45;;;15.80;95.40;;;;;;5076173;28;20024;-50
2023/08/02 01:31:47;;;;;;;4.47;2.90;;;15.80;95.40;;;;;;5076235;28;20037;-48
2023/08/02 01:34:15;;;;;;;10.57;3.78;;;15.80;95.50;;;;;;5076117;28;20579;-50
2023/08/02 01:36:42;;;;;;;4.95;3.00;;;15.80;95.50;;;;;;5057465;28;20070;-49
2023/08/02 01:39:09;;;;;;;7.35;2.95;;;15.80;95.50;;;;;;5076365;28;20033;-48
2023/08/02 01:41:36;;;;;;;7.25;3.55;;;15.80;95.50;;;;;;5058365;28;20024;-49
2023/08/02 01:44:03;;;;;;;6.15;3.45;;;15.80;95.50;;;;;;5075627;28;20354;-50
2023/08/02 01:46:30;;;;;;;6.38;3.95;;;15.90;95.50;;;;;;5075597;28;20024;-49
2023/08/02 01:48:58;;;;;;;7.88;4.20;;;15.90;95.60;;;;;;5076019;28;20032;-50
2023/08/02 01:51:25;;;;;;;6.93;3.72;;;15.90;95.60;;;;;;5075922;28;20031;-49
2023/08/02 01:53:52;;;;;;;7.68;4.40;;;15.90;95.60;;;;;;5075007;28;20060;-49
2023/08/02 01:56:18;;;;;;;8.77;4.75;;;15.90;95.60;;;;;;5058161;28;20384;-50
2023/08/02 01:58:47;;;;;;;9.48;4.40;;;15.90;95.60;;;;;;5075758;28;20043;-49
2023/08/02 02:01:16;;;;;;;8.67;5.10;;;15.90;95.60;;;;;;5074969;28;20036;-50
2023/08/02 02:03:46;;;;;;;9.73;4.90;;;15.90;95.60;;;;;;5075941;28;20271;-49
2023/08/02 02:06:12;;;;;;;12.70;5.97;;;15.90;95.60;;;;;;5057126;28;20040;-50
2023/08/02 02:08:39;;;;;;;6.65;4.25;;;15.90;95.60;;;;;;5075578;28;20408;-49
2023/08/02 02:11:05;;;;;;;7.72;4.80;;;15.90;95.60;;;;;;5056954;28;20032;-50
2023/08/02 02:13:32;;;;;;;8.90;5.32;;;15.80;95.50;;;;;;5075172;28;20074;-51
2023/08/02 02:15:58;;;;;;;8.30;4.75;;;15.80;95.50;;;;;;5075688;28;20330;-53
2023/08/02 02:18:24;;;;;;;13.80;5.40;;;15.80;95.60;;;;;;5057821;28;20390;-50
2023/08/02 02:20:50;;;;;;;9.20;4.60;;;15.80;95.60;;;;;;5074967;28;20174;-49
2023/08/02 02:23:16;;;;;;;9.07;4.63;;;15.80;95.50;;;;;;5075365;28;20059;-51
2023/08/02 02:25:46;;;;;;;6.82;4.70;;;15.80;95.60;;;;;;5074719;28;20115;-50
2023/08/02 02:28:13;;;;;;;14.10;4.20;;;15.80;95.50;;;;;;5075364;28;20025;-51
2023/08/02 02:30:43;;;;;;;7.97;4.35;;;15.70;95.50;;;;;;5075338;28;20028;-50
2023/08/02 02:33:08;;;;;;;12.00;4.25;;;15.70;95.50;;;;;;5057355;28;20025;-49
2023/08/02 02:35:37;;;;;;;8.80;3.40;;;15.70;95.40;;;;;;5040551;28;20171;-50
2023/08/02 02:38:11;;;;;;;8.90;3.92;;;15.70;95.40;;;;;;5058848;28;20024;-49
2023/08/02 02:40:39;;;;;;;9.15;4.03;;;15.60;95.30;;;;;;5075004;28;20024;-49
2023/08/02 02:43:08;;;;;;;6.32;4.07;;;15.50;95.20;;;;;;5074747;28;20021;-49
2023/08/02 02:45:38;;;;;;;7.47;3.78;;;15.40;95.20;;;;;;5074356;28;20471;-50
2023/08/02 02:48:05;;;;;;;5.30;3.75;;;15.40;95.20;;;;;;5074934;28;20571;-50
2023/08/02 02:50:34;;;;;;;6.93;3.83;;;15.40;95.20;;;;;;5074775;28;20117;-48
2023/08/02 02:53:01;;;;;;;8.50;4.80;;;15.30;95.20;;;;;;5056782;28;20059;-48
2023/08/02 02:55:28;;;;;;;8.05;4.70;;;15.30;95.20;;;;;;5074918;28;20034;-49
2023/08/02 02:57:55;;;;;;;9.55;5.18;;;15.30;95.20;;;;;;5074707;28;20029;-50
2023/08/02 03:00:22;;;;;;;12.57;4.75;;;15.30;95.20;;;;;;5074208;28;20511;-49
2023/08/02 03:02:49;;;;;;;6.30;4.53;;;15.20;95.10;;;;;;5056930;28;20105;-49
2023/08/02 03:05:16;;;;;;;6.20;3.80;;;15.10;95.10;;;;;;5056808;28;20030;-51
2023/08/02 03:07:43;;;;;;;6.35;3.67;;;15.10;95.10;;;;;;5056920;28;20033;-50
2023/08/02 03:10:10;;;;;;;9.13;4.97;;;15.10;95.10;;;;;;5073668;28;20036;-49
2023/08/02 03:12:37;;;;;;;10.23;3.88;;;15.00;95.10;;;;;;5074332;28;20341;-48
2023/08/02 03:15:05;;;;;;;8.50;4.10;;;15.00;95.10;;;;;;5073639;28;20465;-48
2023/08/02 03:17:33;;;;;;;6.93;3.80;;;15.00;95.20;;;;;;5056401;28;20098;-48
2023/08/02 03:19:59;;;;;;;4.85;2.97;;;15.00;95.20;;;;;;5073948;28;20021;-48
2023/08/02 03:22:25;;;;;;;8.77;3.53;;;15.00;95.20;;;;;;5055412;28;20021;-49
2023/08/02 03:24:52;;;;;;;5.53;3.63;;;15.00;95.20;;;;;;5073189;28;20116;-47
2023/08/02 03:27:21;;;;;;;5.75;3.10;;;15.00;95.30;;;;;;5074094;28;20323;-47
2023/08/02 03:29:52;;;;;;;6.75;3.90;;;15.00;95.30;;;;;;5074163;28;20024;-47
2023/08/02 03:32:21;;;;;;;7.28;3.50;;;15.00;95.30;;;;;;5052053;28;20087;-48
2023/08/02 03:34:48;;;;;;;5.18;3.33;;;15.00;95.30;;;;;;5053840;28;20057;-49
2023/08/02 03:37:14;;;;;;;4.43;3.45;;;15.00;95.20;;;;;;5054007;28;20076;-48
2023/08/02 03:39:39;;;;;;;9.43;3.95;;;15.00;95.30;;;;;;5051585;28;20071;-48
2023/08/02 03:42:09;;;;;;;6.90;3.75;;;15.00;95.30;;;;;;5073942;28;20024;-47
2023/08/02 03:44:36;;;;;;;9.40;4.00;;;15.00;95.30;;;;;;5072914;28;20146;-47
2023/08/02 03:47:08;;;;;;;6.00;3.85;;;14.90;95.40;;;;;;5073707;28;20025;-47
2023/08/02 03:49:35;;;;;;;10.05;3.78;;;15.00;95.40;;;;;;5054144;28;20103;-47
2023/08/02 03:52:03;;;;;;;9.00;4.32;;;14.90;95.40;;;;;;5066871;28;20024;-47
2023/08/02 03:54:29;;;;;;;10.98;3.65;;;15.00;95.40;;;;;;5054228;28;20063;-48
2023/08/02 03:56:57;;;;;;;10.23;4.55;;;14.90;95.40;;;;;;5073091;28;20024;-48
2023/08/02 03:59:23;;;;;;;7.15;4.00;;;15.00;95.30;;;;;;5054715;28;20036;-48
2023/08/02 04:01:50;;;;;;;7.93;4.20;;;14.90;95.30;;;;;;5073050;28;20028;-49
2023/08/02 04:04:16;;;;;;;10.43;4.82;;;14.90;95.20;;;;;;5072869;28;20449;-47
2023/08/02 04:06:43;;;;;;;6.65;3.78;;;14.90;95.20;;;;;;5038673;28;20051;-47
2023/08/02 04:09:10;;;;;;;6.00;3.25;;;14.90;95.30;;;;;;5073373;28;20512;-48
2023/08/02 04:11:36;;;;;;;8.55;3.72;;;14.90;95.30;;;;;;5073195;28;20057;-47
2023/08/02 04:14:04;;;;;;;6.20;3.42;;;14.90;95.20;;;;;;5072765;28;20028;-47
2023/08/02 04:16:30;;;;;;;5.72;4.00;;;14.90;95.20;;;;;;5050893;28;20033;-47
2023/08/02 04:18:57;;;;;;;8.02;3.55;;;14.90;95.10;;;;;;5039775;28;20039;-47
2023/08/02 04:21:24;;;;;;;8.48;3.28;;;14.80;95.20;;;;;;5073329;28;20035;-48
2023/08/02 04:23:54;;;;;;;7.20;3.30;;;14.80;95.20;;;;;;5073367;28;20048;-47
2023/08/02 04:26:21;;;;;;;6.35;3.53;;;14.80;95.20;;;;;;5073216;28;20021;-47
2023/08/02 04:28:48;;;;;;;8.90;3.50;;;14.80;95.10;;;;;;5072530;28;20035;-48
2023/08/02 04:31:15;;;;;;;11.23;5.10;;;14.80;95.10;;;;;;5073142;28;20107;-48
2023/08/02 04:33:40;;;;;;;9.57;4.35;;;14.80;95.20;;;;;;5072931;28;20470;-47
2023/08/02 04:36:07;;;;;;;4.55;3.50;;;14.80;95.20;;;;;;5072100;28;20108;-47
2023/08/02 04:38:34;;;;;;;6.00;4.05;;;14.90;95.30;;;;;;5073097;28;20054;-47
2023/08/02 04:41:01;;;;;;;6.72;4.30;;;14.90;95.30;;;;;;5055268;28;20024;-47
2023/08/02 04:43:27;;;;;;;7.97;3.95;;;15.00;95.30;;;;;;5073056;28;20052;-47
2023/08/02 04:45:54;;;;;;;5.97;3.90;;;15.10;95.40;;;;;;5072326;28;20048;-47
2023/08/02 04:48:20;;;;;;;8.15;4.22;;;15.20;95.50;;;;;;5073089;28;20039;-47
2023/08/02 04:50:46;;;;;;;8.15;4.72;;;15.30;95.50;;;;;;5072867;28;20433;-47
2023/08/02 04:53:13;;;;;;;7.68;4.47;;;15.40;95.40;;;;;;5072326;28;20033;-48
2023/08/02 04:55:46;;;;;;;11.02;4.80;;;15.40;95.40;;;;;;5072833;28;20024;-47
2023/08/02 04:58:13;;;;;;;6.20;4.50;;;15.50;95.30;;;;;;5055039;28;20028;-48
2023/08/02 05:00:40;;;;;;;8.73;6.00;;;15.60;95.40;;;;;;5072467;28;20299;-50
2023/08/02 05:03:06;;;;;;;9.70;4.65;;;15.70;95.40;;;;;;5072353;28;20036;-49
2023/08/02 05:05:35;;;;;;;8.32;5.45;;;15.70;95.30;;;;;;5071832;28;20457;-48
2023/08/02 05:08:02;;;;;;;9.17;5.00;;;15.70;95.10;;;;;;5072845;28;20024;-48
2023/08/02 05:10:30;;;;;;;9.45;5.50;;;15.70;95.10;;;;;;5071925;28;20106;-49
2023/08/02 05:12:57;;;;;;;9.30;5.10;;;15.70;95.10;;;;;;5055051;28;20040;-48
2023/08/02 05:15:23;;;;;;;8.68;5.55;;;15.70;95.10;;;;;;5072814;28;20032;-49
2023/08/02 05:17:50;;;;;;;7.72;5.15;;;15.80;95.00;;;;;;5072671;28;20071;-48
2023/08/02 05:20:17;;;;;;;9.85;5.15;;;15.80;95.10;;;;;;5054093;28;20063;-50
2023/08/02 05:22:43;;;;;;;6.25;4.65;;;15.90;95.10;;;;;;5072778;28;20017;-50
2023/08/02 05:25:09;;;;;;;8.82;4.53;;;15.90;95.00;;;;;;5054965;28;20361;-51
2023/08/02 05:27:36;;;;;;;5.63;4.78;;;15.90;95.00;;;;;;5053857;28;20039;-49
2023/08/02 05:30:04;;;;;;;9.38;6.15;;;15.90;95.00;;;;;;5054847;28;20038;-50
2023/08/02 05:32:31;;;;;;;7.25;4.68;;;15.90;94.90;;;;;;5072516;28;20036;-53
2023/08/02 05:34:58;;;;;;;8.93;5.35;;;15.90;94.80;;;;;;5071790;28;20098;-51
2023/08/02 05:37:24;;;;;;;13.13;6.05;;;15.90;94.80;;;;;;5054734;28;20029;-54
2023/08/02 05:39:51;;;;;;;12.65;6.20;;;15.90;94.70;;;;;;5072861;28;20025;-54
2023/08/02 05:42:17;;;;;;;11.38;5.20;;;15.90;94.60;;;;;;5053843;28;20021;-55
2023/08/02 05:44:44;;;;;;;9.00;5.47;;;15.90;94.60;;;;;;5072471;28;20048;-50
2023/08/02 05:47:11;;;;;;;12.10;6.65;;;15.90;94.60;;;;;;5051584;28;20446;-51
2023/08/02 05:49:36;;;;;;;13.50;5.80;;;15.90;94.50;;;;;;5056062;28;20032;-54
2023/08/02 05:52:03;;;;;;;13.65;7.18;;;15.90;94.60;;;;;;5038523;28;20489;-54
2023/08/02 05:54:30;;;;;;;9.75;5.70;;;15.90;94.50;;;;;;5055787;28;20126;-51
2023/08/02 05:56:56;;;;;;;7.85;5.20;;;15.90;94.40;;;;;;5066916;28;20029;-52
2023/08/02 05:59:23;;;;;;;12.60;6.20;;;15.90;94.60;;;;;;5075677;28;20021;-52
2023/08/02 06:01:49;;;;;;;11.20;5.60;;;16.00;94.60;;;;;;5058187;28;20047;-55
2023/08/02 06:04:21;;;;;;;10.98;6.00;;;16.00;94.30;;;;;;5075185;28;20028;-55
2023/08/02 06:06:47;;;;;;;12.60;6.55;;;16.00;94.30;;;;;;5075646;28;20024;-57
2023/08/02 06:09:13;;;;;;;13.73;6.03;;;16.00;94.20;;;;;;5074823;28;20043;-53
2023/08/02 06:11:40;;;;;;;14.77;6.65;;;16.10;94.20;;;;;;5058090;28;20164;-57
2023/08/02 06:14:07;;;;;;;13.93;6.10;;;16.00;94.00;;;;;;5074923;28;20110;-56
2023/08/02 06:16:40;;;;;;;14.90;6.65;;;16.10;93.90;;;;;;5075501;28;20422;-52
2023/08/02 06:19:05;;;;;;;11.18;5.15;;;16.00;93.90;;;;;;5075554;28;20041;-54
2023/08/02 06:21:34;;;;;;;18.90;7.47;;;16.10;94.10;;;;;;5075025;28;20032;-56
2023/08/02 06:24:03;;;;;;;15.05;5.93;;;16.10;93.70;;;;;;5075443;28;20349;-54
2023/08/02 06:26:31;;;;;;;22.38;7.55;;;16.10;93.80;;;;;;5075332;28;20024;-54
2023/08/02 06:28:58;;;;;;;10.70;6.13;;;16.20;94.00;;;;;;5074501;28;20032;-51
2023/08/02 06:31:24;;;;;;;14.02;5.88;;;16.20;93.80;;;;;;5075105;28;20036;-54
2023/08/02 06:33:52;;;;;;;12.98;6.07;;;16.20;93.70;;;;;;5057364;28;20056;-56
2023/08/02 06:36:19;;;;;;;19.80;7.07;;;16.20;93.40;;;;;;5056737;28;20028;-55
2023/08/02 06:38:46;;;;;;;13.10;5.82;;;16.20;93.30;;;;;;5075235;28;20032;-55
2023/08/02 06:41:13;;;;;;;12.50;5.93;;;16.20;93.40;;;;;;5074232;28;20039;-55
2023/08/02 06:43:42;;;;;;;12.57;5.88;;;16.30;93.40;;;;;;5075061;28;20383;-57
2023/08/02 06:46:11;;;;;;;18.63;7.47;;;16.40;93.30;;;;;;5075060;28;20048;-55
2023/08/02 06:48:38;;;;;;;15.57;6.70;;;16.40;93.30;;;;;;5074905;28;20032;-56
2023/08/02 06:51:07;;;;;;;11.15;6.55;;;16.40;93.10;;;;;;5074291;28;20386;-55
2023/08/02 06:53:33;;;;;;;12.43;5.33;;;16.50;93.20;;;;;;5074696;28;20024;-50
2023/08/02 06:56:16;;;;;;;11.80;5.85;;;16.60;93.00;;;;;;5074508;28;20363;-53
2023/08/02 06:58:43;;;;;;;12.88;6.80;;;16.70;92.80;;;;;;5055282;28;20036;-56
2023/08/02 07:01:27;;;;;;;18.90;8.00;;;16.70;92.80;;;;;;5074462;28;20039;-55
2023/08/02 07:03:54;;;;;;;10.98;5.95;;;16.80;92.20;;;;;;5074137;28;20042;-57
2023/08/02 07:06:21;;;;;;;11.18;5.53;;;16.80;92.30;;;;;;5073518;28;20029;-55
2023/08/02 07:08:49;;;;;;;13.38;6.40;;;16.80;92.20;;;;;;5074204;28;20353;-54
2023/08/02 07:11:18;;;;;;;14.73;6.53;;;16.90;92.20;;;;;;5074189;28;20109;-56
2023/08/02 07:13:48;;;;;;;14.68;5.93;;;16.90;92.30;;;;;;5073759;28;20421;-54
2023/08/02 07:16:13;;;;;;;11.15;6.25;;;17.00;92.10;;;;;;5074005;28;20437;-54
2023/08/02 07:18:43;;;;;;;13.05;7.00;;;17.20;92.20;;;;;;5073736;28;20028;-55
2023/08/02 07:21:09;;;;;;;14.52;7.18;;;17.40;91.90;;;;;;5055520;28;20334;-52
2023/08/02 07:23:36;;;;;;;10.95;5.82;;;17.40;91.30;;;;;;5055249;28;20089;-54
2023/08/02 07:26:04;;;;;;;12.70;6.15;;;17.50;90.90;;;;;;5073209;28;20032;-53
2023/08/02 07:28:32;;;;;;;12.82;6.55;;;17.50;90.60;;;;;;5056359;28;20123;-58
2023/08/02 07:31:16;;;;;;;11.80;6.30;;;17.60;90.10;;;;;;5073606;28;20036;-52
2023/08/02 07:33:45;;;;;;;12.05;6.13;;;17.50;89.90;;;;;;5073167;28;20564;-50
2023/08/02 07:36:17;;;;;;;11.55;5.60;;;17.70;90.10;;;;;;5073635;28;20029;-56
2023/08/02 07:38:47;;;;;;;9.25;5.78;;;17.80;89.80;;;;;;5072967;28;20029;-53
2023/08/02 07:41:14;;;;;;;;;;;17.90;89.30;;;;;;5056839;28;20037;-52
2023/08/02 07:43:41;;;;;;;13.05;5.90;;;18.00;88.30;;;;;;5073541;28;20337;-51
2023/08/02 07:46:18;;;;;;;12.07;6.03;;;18.20;87.50;;;;;;5073124;28;20031;-55
2023/08/02 07:48:47;;;;;;;10.13;5.18;;;18.30;87.00;;;;;;5074006;28;20036;-52
2023/08/02 07:51:14;;;;;;;14.77;6.22;;;18.30;86.20;;;;;;5073012;28;20195;-52
2023/08/02 07:53:42;;;;;;;11.93;6.03;;;18.30;86.20;;;;;;5072784;28;20047;-50
2023/08/02 07:56:08;;;;;;;10.82;5.63;;;18.20;86.50;;;;;;5072922;28;20025;-53
2023/08/02 07:58:36;;;;;;;12.90;5.70;;;18.20;86.80;;;;;;5073594;28;20029;-52
2023/08/02 08:01:09;;;;;;;10.18;4.88;;;18.30;86.90;;;;;;5055652;28;20025;-50
2023/08/02 08:03:36;;;;;;;11.05;6.22;;;18.20;86.70;;;;;;5072904;28;20074;-51
2023/08/02 08:06:15;;;;;;;12.20;5.97;;;18.40;87.00;;;;;;5073614;28;20422;-53
2023/08/02 08:08:44;;;;;;;13.55;6.07;;;18.50;86.70;;;;;;5073432;28;20121;-51
2023/08/02 08:11:12;;;;;;;13.82;5.82;;;18.50;85.90;;;;;;5072891;28;20032;-53
2023/08/02 08:13:39;;;;;;;13.13;5.55;;;18.50;86.00;;;;;;5073009;28;20032;-56
2023/08/02 08:16:04;;;;;;;13.60;6.35;;;18.70;86.50;;;;;;5073559;28;20032;-51
2023/08/02 08:18:32;;;;;;;14.30;5.82;;;18.80;86.00;;;;;;5072553;28;20357;-51
2023/08/02 08:21:01;;;;;;;14.43;6.38;;;18.80;84.80;;;;;;5073347;28;20078;-54
2023/08/02 08:23:32;;;;;;;10.63;5.30;;;18.90;85.20;;;;;;5054913;28;20108;-53
2023/08/02 08:25:59;;;;;;;14.13;5.47;;;18.90;84.80;;;;;;5073168;28;20028;-50
2023/08/02 08:28:26;;;;;;;11.95;5.95;;;18.90;84.50;;;;;;5073338;28;20090;-54
2023/08/02 08:31:00;;;;;;;13.32;5.25;;;18.80;85.00;;;;;;5072515;28;20021;-50
2023/08/02 08:33:27;;;;;;;11.70;5.30;;;18.90;84.70;;;;;;5072927;28;20040;-50
2023/08/02 08:35:58;;;;;;;9.75;5.43;;;19.00;84.70;;;;;;5072327;28;20036;-52
2023/08/02 08:38:26;;;;;;;13.35;5.47;;;19.20;84.30;;;;;;5073111;28;20107;-51
2023/08/02 08:40:55;;;;;;;11.50;6.35;;;19.40;83.80;;;;;;5072542;28;20052;-51
2023/08/02 08:43:25;;;;;;;11.70;5.30;;;19.30;83.00;;;;;;5071863;28;20132;-54
2023/08/02 08:45:53;;;;;;;9.38;6.40;;;19.30;83.50;;;;;;5072990;28;20016;-52
2023/08/02 08:48:22;;;;;;;9.82;5.75;;;19.20;83.00;;;;;;5072428;28;20047;-51
2023/08/02 08:50:50;;;;;;;8.32;5.32;;;19.20;83.10;;;;;;5073025;28;20037;-52
2023/08/02 08:53:27;;;;;;;12.30;5.95;;;19.20;83.10;;;;;;5073325;28;20339;-50
2023/08/02 08:55:55;;;;;;;8.18;4.85;;;19.30;83.20;;;;;;5045721;28;20041;-55
2023/08/02 08:58:23;;;;;;;12.05;5.60;;;19.40;82.70;;;;;;5052789;28;20035;-52
2023/08/02 09:00:53;;;;;;;9.30;5.60;;;19.40;82.50;;;;;;5059200;28;20370;-52
2023/08/02 09:03:20;;;;;;;9.57;4.30;;;19.40;81.70;;;;;;5055809;28;20063;-51
2023/08/02 09:05:48;;;;;;;8.80;4.13;;;19.30;80.80;;;;;;5055078;28;20074;-50
2023/08/02 09:08:15;;;;;;;8.60;4.88;;;19.20;81.60;;;;;;5055282;28;20032;-52
2023/08/02 09:10:42;;;;;;;10.68;4.85;;;19.10;81.70;;;;;;5037819;28;20067;-52
2023/08/02 09:13:29;;;;;;;9.25;3.80;;;19.10;82.20;;;;;;5071775;28;20131;-50
2023/08/02 09:16:15;;;;;;;11.63;4.70;;;18.90;82.40;;;;;;5072276;28;20044;-50
2023/08/02 09:18:59;;;;;;;9.75;3.60;;;18.80;82.70;;;;;;5052851;28;20088;-51
2023/08/02 09:21:27;;;;;;;8.52;3.65;;;18.70;82.70;;;;;;5052776;28;20036;-52
2023/08/02 09:23:58;;;;;;;11.32;4.43;;;18.80;82.30;;;;;;5063668;28;20674;-50
2023/08/02 09:26:29;;;;;;;11.15;4.75;;;18.70;82.30;;;;;;5076444;28;20016;-54
2023/08/02 09:29:07;;;;;;;10.25;4.53;;;18.80;82.50;;;;;;5076358;28;20104;-51
2023/08/02 09:31:35;;;;;;;13.95;4.60;;;18.80;82.80;;;;;;5076377;28;20047;-53
2023/08/02 09:34:03;;;;;;;9.43;4.70;;;18.90;82.90;;;;;;5075197;28;20186;-50
2023/08/02 09:36:47;;;;;;;10.38;4.70;;;18.80;82.60;;;;;;5076454;28;20035;-53
2023/08/02 09:39:14;;;;;;;9.25;4.43;;;18.60;83.20;;;;;;5075017;28;20032;-50
2023/08/02 09:41:41;;;;;;;7.70;3.67;;;18.40;84.20;;;;;;5076034;28;20021;-50
2023/08/02 09:44:08;;;;;;;8.82;3.65;;;18.00;84.10;;;;;;5058464;28;20025;-55
2023/08/02 09:46:36;;;;;;;9.65;3.38;;;17.90;84.70;;;;;;5076113;28;20017;-51
2023/08/02 09:49:20;;;;;;;6.90;3.10;;;17.70;85.40;;;;;;5057339;28;20059;-50
2023/08/02 09:51:48;;;;;;;7.47;3.17;;;17.50;85.70;;;;;;5042480;28;20032;-53
2023/08/02 09:54:15;;;;;;;7.32;3.53;;;17.40;85.90;;;;;;5075878;28;20343;-50
2023/08/02 09:56:42;;;;;;;9.27;4.43;;;17.50;86.40;;;;;;5075330;28;20025;-51
2023/08/02 09:59:11;;;;;;;8.18;4.05;;;17.40;86.70;;;;;;5075737;28;20107;-51
2023/08/02 10:01:39;;;;;;;8.73;5.30;;;17.30;87.00;;;;;;5075615;28;20056;-50
2023/08/02 10:04:12;;;;;;;11.43;5.20;;;17.30;87.30;;;;;;5057165;28;20275;-51
2023/08/02 10:06:49;;;;;;;11.43;4.80;;;17.30;87.80;;;;;;5075984;28;20447;-48
2023/08/02 10:09:20;;;;;;;9.00;4.30;;;17.20;88.10;;;;;;5075619;28;20032;-48
2023/08/02 10:12:04;;;;;;;28.42;10.48;;;17.20;88.70;;;;;;5075131;28;20035;-49
2023/08/02 10:14:32;;;;;;;7.43;5.50;;;17.10;89.10;;;;;;5054426;28;20036;-46
2023/08/02 10:17:02;;;;;;;12.07;6.63;;;17.00;89.30;;;;;;5055681;28;20025;-47
2023/08/02 10:19:32;;;;;;;9.88;5.30;;;17.00;89.60;;;;;;5069833;28;20021;-47
2023/08/02 10:21:59;;;;;;;13.48;6.55;;;17.00;90.00;;;;;;5074922;28;20024;-49
2023/08/02 10:24:29;;;;;;;10.23;6.25;;;17.00;90.40;;;;;;5075500;28;20028;-48
2023/08/02 10:27:06;;;;;;;17.83;6.47;;;17.00;90.50;;;;;;5075355;28;20025;-52
2023/08/02 10:29:34;;;;;;;14.20;6.35;;;16.90;90.70;;;;;;5074636;28;20023;-53
2023/08/02 10:32:14;;;;;;;10.07;6.90;;;16.90;90.70;;;;;;5057498;28;20353;-49
2023/08/02 10:34:48;;;;;;;9.20;6.47;;;16.90;90.80;;;;;;5075202;28;20342;-50
2023/08/02 10:37:18;;;;;;;10.55;6.68;;;16.90;91.20;;;;;;5075076;28;20346;-49
2023/08/02 10:40:02;;;;;;;11.23;6.97;;;16.90;91.40;;;;;;5074526;28;20361;-49
2023/08/02 10:42:51;;;;;;;8.57;5.65;;;16.80;91.60;;;;;;5056231;28;20032;-50
2023/08/02 10:45:21;;;;;;;11.40;6.22;;;16.90;92.20;;;;;;5075098;28;20039;-49
2023/08/02 10:47:47;;;;;;;10.52;5.50;;;16.90;92.40;;;;;;5075063;28;20031;-51
2023/08/02 10:50:48;;;;;;;9.52;6.72;;;16.90;92.60;;;;;;5074458;28;20055;-49
2023/08/02 10:53:31;;;;;;;12.60;6.50;;;17.00;92.80;;;;;;5072795;28;20115;-49
2023/08/02 10:56:17;;;;;;;13.10;5.82;;;17.10;93.00;;;;;;5074681;28;20036;-49
2023/08/02 10:58:49;;;;;;;10.77;5.25;;;17.30;93.00;;;;;;5074786;28;20048;-50
2023/08/02 11:01:16;;;;;;;10.80;4.55;;;17.40;92.70;;;;;;5074224;28;20111;-48
2023/08/02 11:03:48;;;;;;;12.60;5.18;;;17.40;92.20;;;;;;5074801;28;20509;-47
2023/08/02 11:06:34;;;;;;;9.27;4.95;;;17.40;91.70;;;;;;5073975;28;20094;-47
2023/08/02 11:09:01;;;;;;;9.43;5.38;;;17.40;91.50;;;;;;5074663;28;20023;-48
2023/08/02 11:11:33;;;;;;;8.27;5.10;;;17.40;91.20;;;;;;5073963;28;20032;-49
2023/08/02 11:13:59;;;;;;;6.82;4.78;;;17.50;91.00;;;;;;5056760;28;20441;-51
2023/08/02 11:16:29;;;;;;;13.38;6.07;;;17.60;91.20;;;;;;5074541;28;20043;-50
2023/08/02 11:18:59;;;;;;;9.40;4.78;;;17.60;91.30;;;;;;5074431;28;20349;-49
2023/08/02 11:21:25;;;;;;;8.70;5.32;;;17.70;91.50;;;;;;5073829;28;20141;-52
2023/08/02 11:23:59;;;;;;;10.50;5.72;;;17.70;91.20;;;;;;5074243;28;20062;-49
2023/08/02 11:26:29;;;;;;;11.32;5.82;;;17.70;91.10;;;;;;5074146;28;20025;-52
2023/08/02 11:28:59;;;;;;;9.95;5.30;;;17.60;90.90;;;;;;5073455;28;20082;-52
2023/08/02 11:31:27;;;;;;;;;;;17.40;91.00;;;;;;5074493;28;20350;-52
2023/08/02 11:33:54;;;;;;;7.55;4.68;;;17.40;91.00;;;;;;5073448;28;19916;-52
2023/08/02 11:36:24;;;;;;;10.45;5.07;;;17.50;91.60;;;;;;5073998;28;20020;-50
2023/08/02 11:38:55;;;;;;;;;;;17.40;91.60;;;;;;5073730;28;20036;-51
2023/08/02 11:41:23;;;;;;;8.63;6.07;;;17.40;91.60;;;;;;5074121;28;19908;-54
2023/08/02 11:43:51;;;;;;;9.57;5.45;;;17.50;91.90;;;;;;5073815;28;20044;-51
2023/08/02 11:46:37;;;;;;;10.43;5.85;;;17.50;91.90;;;;;;5073311;28;20106;-51
2023/08/02 11:49:08;;;;;;;9.43;5.53;;;17.50;92.00;;;;;;5054998;28;20025;-54
2023/08/02 11:51:40;;;;;;;12.07;4.88;;;17.40;91.70;;;;;;5073897;28;20107;-56
2023/08/02 11:54:07;;;;;;;11.20;5.20;;;17.40;91.90;;;;;;5056206;28;20148;-51
2023/08/02 11:56:34;;;;;;;9.93;6.00;;;17.40;92.00;;;;;;5054444;28;20450;-57
2023/08/02 11:59:01;;;;;;;11.93;6.68;;;17.40;92.10;;;;;;5073127;28;20443;-53
2023/08/02 12:01:28;;;;;;;9.65;5.60;;;17.50;92.30;;;;;;5073553;28;20353;-53
2023/08/02 12:04:13;;;;;;;9.18;5.85;;;17.50;92.40;;;;;;5072960;28;20031;-51
2023/08/02 12:06:55;;;;;;;8.57;6.35;;;17.60;92.50;;;;;;5073535;28;20450;-50
2023/08/02 12:09:43;;;;;;;9.02;5.95;;;17.70;92.50;;;;;;5072328;28;20067;-55
2023/08/02 12:12:08;;;;;;;9.90;5.72;;;17.60;92.30;;;;;;5056796;28;20429;-51
2023/08/02 12:14:38;;;;;;;9.90;6.15;;;17.60;92.50;;;;;;5055728;28;20043;-52
2023/08/02 12:17:05;;;;;;;9.32;5.85;;;17.80;93.00;;;;;;5072578;28;20032;-52
2023/08/02 12:19:41;;;;;;;8.10;5.25;;;17.80;92.80;;;;;;5073405;28;20349;-52
2023/08/02 12:22:07;;;;;;;9.90;5.03;;;17.80;92.50;;;;;;5073360;28;20020;-53
2023/08/02 12:24:34;;;;;;;9.20;6.00;;;17.70;92.30;;;;;;5072376;28;20021;-52
2023/08/02 12:27:19;;;;;;;11.38;5.78;;;17.80;92.70;;;;;;5073309;28;20021;-52
2023/08/02 12:29:47;;;;;;;11.88;6.22;;;17.60;92.40;;;;;;5073251;28;20056;-51
2023/08/02 12:32:31;;;;;;;7.15;4.85;;;17.60;92.40;;;;;;5073154;28;20039;-51
2023/08/02 12:35:07;;;;;;;10.60;5.40;;;17.70;92.40;;;;;;5072200;28;20059;-50
2023/08/02 12:37:34;;;;;;;9.73;4.85;;;17.80;93.10;;;;;;5072946;28;20143;-56
2023/08/02 12:40:00;;;;;;;10.70;5.15;;;17.80;92.90;;;;;;5072566;28;20512;-53
2023/08/02 12:42:27;;;;;;;8.05;5.68;;;17.90;92.70;;;;;;5073140;28;20081;-51
2023/08/02 12:44:56;;;;;;;9.60;4.00;;;17.80;92.50;;;;;;5072517;28;20037;-54
2023/08/02 12:47:26;;;;;;;7.15;4.65;;;17.80;92.30;;;;;;5073196;28;20100;-55
2023/08/02 12:49:57;;;;;;;6.65;4.78;;;17.90;92.60;;;;;;5073074;28;20334;-52
2023/08/02 12:52:22;;;;;;;8.60;4.35;;;17.90;92.20;;;;;;5072374;28;20021;-53
2023/08/02 12:54:49;;;;;;;6.90;5.03;;;17.80;92.20;;;;;;5072993;28;20334;-52